sensor_id;sensor_type;location;lat;lon;timestamp;temperature;humidity
30244;DHT22;64022;53.652;9.792;2022-11-15T00:00:50;20.80;74.80
30244;DHT22;64022;53.652;9.792;2022-11-15T00:03:20;20.80;75.30
30244;DHT22;64022;53.652;9.792;2022-11-15T00:05:46;20.80;74.80
30244;DHT22;64022;53.652;9.792;2022-11-15T00:08:12;20.80;74.80
30244;DHT22;64022;53.652;9.792;2022-11-15T00:10:38;20.80;74.70
30244;DHT22;64022;53.652;9.792;2022-11-15T00:13:08;20.80;74.70
30244;DHT22;64022;53.652;9.792;2022-11-15T00:15:37;20.80;74.80
30244;DHT22;64022;53.652;9.792;2022-11-15T00:18:04;20.80;74.70
30244;DHT22;64022;53.652;9.792;2022-11-15T00:20:30;20.80;74.70
30244;DHT22;64022;53.652;9.792;2022-11-15T00:22:56;20.80;74.70
30244;DHT22;64022;53.652;9.792;2022-11-15T00:25:21;20.80;74.70
30244;DHT22;64022;53.652;9.792;2022-11-15T00:27:47;20.80;74.70
30244;DHT22;64022;53.652;9.792;2022-11-15T00:30:12;20.80;74.70
30244;DHT22;64022;53.652;9.792;2022-11-15T00:32:38;20.80;74.70
30244;DHT22;64022;53.652;9.792;2022-11-15T00:35:04;20.80;74.70
30244;DHT22;64022;53.652;9.792;2022-11-15T00:37:29;20.80;74.70
30244;DHT22;64022;53.652;9.792;2022-11-15T00:39:55;20.80;74.70
30244;DHT22;64022;53.652;9.792;2022-11-15T00:42:20;20.80;74.70
30244;DHT22;64022;53.652;9.792;2022-11-15T00:44:46;20.80;74.70
30244;DHT22;64022;53.652;9.792;2022-11-15T00:47:11;20.80;74.70
30244;DHT22;64022;53.652;9.792;2022-11-15T00:49:37;20.80;74.70
30244;DHT22;64022;53.652;9.792;2022-11-15T00:52:02;20.80;74.60
30244;DHT22;64022;53.652;9.792;2022-11-15T00:54:28;20.70;74.60
30244;DHT22;64022;53.652;9.792;2022-11-15T00:56:53;20.80;74.70
30244;DHT22;64022;53.652;9.792;2022-11-15T00:59:19;20.70;74.60
30244;DHT22;64022;53.652;9.792;2022-11-15T01:01:44;20.80;74.60
30244;DHT22;64022;53.652;9.792;2022-11-15T01:04:10;20.80;74.60
30244;DHT22;64022;53.652;9.792;2022-11-15T01:06:36;20.70;74.60
30244;DHT22;64022;53.652;9.792;2022-11-15T01:09:01;20.80;74.60
30244;DHT22;64022;53.652;9.792;2022-11-15T01:11:27;20.70;74.60
30244;DHT22;64022;53.652;9.792;2022-11-15T01:13:52;20.80;74.60
30244;DHT22;64022;53.652;9.792;2022-11-15T01:16:18;20.70;74.60
30244;DHT22;64022;53.652;9.792;2022-11-15T01:18:45;20.80;74.60
30244;DHT22;64022;53.652;9.792;2022-11-15T01:21:12;20.70;74.60
30244;DHT22;64022;53.652;9.792;2022-11-15T01:23:39;20.80;74.60
30244;DHT22;64022;53.652;9.792;2022-11-15T01:26:07;20.70;74.60
30244;DHT22;64022;53.652;9.792;2022-11-15T01:28:35;20.80;74.60
30244;DHT22;64022;53.652;9.792;2022-11-15T01:31:02;20.70;74.60
30244;DHT22;64022;53.652;9.792;2022-11-15T01:33:29;20.70;75.10
30244;DHT22;64022;53.652;9.792;2022-11-15T01:35:54;20.80;74.60
30244;DHT22;64022;53.652;9.792;2022-11-15T01:38:21;20.70;74.50
30244;DHT22;64022;53.652;9.792;2022-11-15T01:40:47;20.70;74.50
30244;DHT22;64022;53.652;9.792;2022-11-15T01:43:39;20.70;74.50
30244;DHT22;64022;53.652;9.792;2022-11-15T01:48:57;20.70;74.40
30244;DHT22;64022;53.652;9.792;2022-11-15T01:51:26;20.70;74.50
30244;DHT22;64022;53.652;9.792;2022-11-15T01:53:56;20.70;74.50
30244;DHT22;64022;53.652;9.792;2022-11-15T01:56:27;20.70;74.50
30244;DHT22;64022;53.652;9.792;2022-11-15T01:58:55;20.70;74.50
30244;DHT22;64022;53.652;9.792;2022-11-15T02:01:22;20.70;74.50
30244;DHT22;64022;53.652;9.792;2022-11-15T02:04:02;20.70;74.50
30244;DHT22;64022;53.652;9.792;2022-11-15T02:06:29;20.70;74.50
30244;DHT22;64022;53.652;9.792;2022-11-15T02:08:56;20.70;74.50
30244;DHT22;64022;53.652;9.792;2022-11-15T02:11:22;20.70;74.50
30244;DHT22;64022;53.652;9.792;2022-11-15T02:13:48;20.70;74.50
30244;DHT22;64022;53.652;9.792;2022-11-15T02:16:26;20.70;74.50
30244;DHT22;64022;53.652;9.792;2022-11-15T02:30:32;20.70;74.50
30244;DHT22;64022;53.652;9.792;2022-11-15T02:35:59;20.70;74.50
30244;DHT22;64022;53.652;9.792;2022-11-15T02:38:44;20.70;74.50
30244;DHT22;64022;53.652;9.792;2022-11-15T02:41:16;20.70;74.50
30244;DHT22;64022;53.652;9.792;2022-11-15T02:44:17;20.70;74.50
30244;DHT22;64022;53.652;9.792;2022-11-15T02:46:51;20.70;74.50
30244;DHT22;64022;53.652;9.792;2022-11-15T02:49:37;20.70;74.50
30244;DHT22;64022;53.652;9.792;2022-11-15T02:52:04;20.70;74.50
30244;DHT22;64022;53.652;9.792;2022-11-15T02:54:32;20.70;74.50
30244;DHT22;64022;53.652;9.792;2022-11-15T02:57:07;20.70;74.50
30244;DHT22;64022;53.652;9.792;2022-11-15T03:04:58;20.70;74.40
30244;DHT22;64022;53.652;9.792;2022-11-15T03:07:57;20.70;74.40
30244;DHT22;64022;53.652;9.792;2022-11-15T03:10:52;20.70;74.40
30244;DHT22;64022;53.652;9.792;2022-11-15T03:13:35;20.70;74.40
30244;DHT22;64022;53.652;9.792;2022-11-15T03:16:24;20.70;74.40
30244;DHT22;64022;53.652;9.792;2022-11-15T03:18:56;20.70;74.50
30244;DHT22;64022;53.652;9.792;2022-11-15T03:21:24;20.70;74.50
30244;DHT22;64022;53.652;9.792;2022-11-15T03:23:50;20.70;74.40
30244;DHT22;64022;53.652;9.792;2022-11-15T03:26:18;20.60;74.10
30244;DHT22;64022;53.652;9.792;2022-11-15T03:29:12;20.60;74.50
30244;DHT22;64022;53.652;9.792;2022-11-15T03:31:42;20.60;74.30
30244;DHT22;64022;53.652;9.792;2022-11-15T03:34:19;20.60;74.40
30244;DHT22;64022;53.652;9.792;2022-11-15T03:36:47;20.60;74.40
30244;DHT22;64022;53.652;9.792;2022-11-15T03:39:14;20.60;74.40
30244;DHT22;64022;53.652;9.792;2022-11-15T03:42:08;20.70;74.40
30244;DHT22;64022;53.652;9.792;2022-11-15T03:44:54;20.70;74.40
30244;DHT22;64022;53.652;9.792;2022-11-15T03:47:39;20.60;74.30
30244;DHT22;64022;53.652;9.792;2022-11-15T03:50:11;20.70;74.40
30244;DHT22;64022;53.652;9.792;2022-11-15T03:52:39;20.60;74.40
30244;DHT22;64022;53.652;9.792;2022-11-15T03:55:09;20.60;74.30
30244;DHT22;64022;53.652;9.792;2022-11-15T03:57:35;20.70;74.40
30244;DHT22;64022;53.652;9.792;2022-11-15T04:00:01;20.60;74.30
30244;DHT22;64022;53.652;9.792;2022-11-15T04:02:27;20.70;74.40
30244;DHT22;64022;53.652;9.792;2022-11-15T04:04:53;20.60;74.30
30244;DHT22;64022;53.652;9.792;2022-11-15T04:07:18;20.70;74.30
30244;DHT22;64022;53.652;9.792;2022-11-15T04:09:44;20.60;74.30
30244;DHT22;64022;53.652;9.792;2022-11-15T04:12:41;20.70;74.30
30244;DHT22;64022;53.652;9.792;2022-11-15T04:15:13;20.60;74.20
30244;DHT22;64022;53.652;9.792;2022-11-15T04:17:45;20.60;74.30
30244;DHT22;64022;53.652;9.792;2022-11-15T04:20:14;20.60;74.30
30244;DHT22;64022;53.652;9.792;2022-11-15T04:23:00;20.60;74.30
30244;DHT22;64022;53.652;9.792;2022-11-15T04:25:50;20.60;74.30
30244;DHT22;64022;53.652;9.792;2022-11-15T04:28:16;20.60;74.30
30244;DHT22;64022;53.652;9.792;2022-11-15T04:30:41;20.60;74.30
30244;DHT22;64022;53.652;9.792;2022-11-15T04:33:07;20.60;74.30
30244;DHT22;64022;53.652;9.792;2022-11-15T04:35:33;20.60;74.20
30244;DHT22;64022;53.652;9.792;2022-11-15T04:37:59;20.60;74.20
30244;DHT22;64022;53.652;9.792;2022-11-15T04:40:25;20.60;74.20
30244;DHT22;64022;53.652;9.792;2022-11-15T04:42:51;20.60;74.20
30244;DHT22;64022;53.652;9.792;2022-11-15T04:45:17;20.60;74.30
30244;DHT22;64022;53.652;9.792;2022-11-15T04:47:45;20.60;74.30
30244;DHT22;64022;53.652;9.792;2022-11-15T04:50:13;20.60;74.30
30244;DHT22;64022;53.652;9.792;2022-11-15T04:52:40;20.60;74.30
30244;DHT22;64022;53.652;9.792;2022-11-15T04:55:07;20.60;74.30
30244;DHT22;64022;53.652;9.792;2022-11-15T04:57:33;20.60;74.30
30244;DHT22;64022;53.652;9.792;2022-11-15T04:59:58;20.60;74.30
30244;DHT22;64022;53.652;9.792;2022-11-15T05:02:24;20.60;74.20
30244;DHT22;64022;53.652;9.792;2022-11-15T05:05:09;20.60;74.30
30244;DHT22;64022;53.652;9.792;2022-11-15T05:07:35;20.60;74.30
30244;DHT22;64022;53.652;9.792;2022-11-15T05:10:00;20.60;74.30
30244;DHT22;64022;53.652;9.792;2022-11-15T05:12:26;20.60;74.30
30244;DHT22;64022;53.652;9.792;2022-11-15T05:14:51;20.60;74.30
30244;DHT22;64022;53.652;9.792;2022-11-15T05:17:17;20.60;74.30
30244;DHT22;64022;53.652;9.792;2022-11-15T05:19:42;20.60;74.30
30244;DHT22;64022;53.652;9.792;2022-11-15T05:22:08;20.60;74.30
30244;DHT22;64022;53.652;9.792;2022-11-15T05:24:33;20.60;74.30
30244;DHT22;64022;53.652;9.792;2022-11-15T05:26:59;20.60;74.30
30244;DHT22;64022;53.652;9.792;2022-11-15T05:29:24;20.60;74.30
30244;DHT22;64022;53.652;9.792;2022-11-15T05:31:50;20.60;74.30
30244;DHT22;64022;53.652;9.792;2022-11-15T05:34:16;20.60;74.30
30244;DHT22;64022;53.652;9.792;2022-11-15T05:36:43;20.60;74.30
30244;DHT22;64022;53.652;9.792;2022-11-15T05:39:11;20.60;74.30
30244;DHT22;64022;53.652;9.792;2022-11-15T05:41:41;20.60;74.30
30244;DHT22;64022;53.652;9.792;2022-11-15T05:44:10;20.60;74.20
30244;DHT22;64022;53.652;9.792;2022-11-15T05:46:37;20.60;74.30
30244;DHT22;64022;53.652;9.792;2022-11-15T05:49:06;20.60;74.20
30244;DHT22;64022;53.652;9.792;2022-11-15T05:51:32;20.60;74.30
30244;DHT22;64022;53.652;9.792;2022-11-15T05:53:58;20.60;74.20
30244;DHT22;64022;53.652;9.792;2022-11-15T05:56:25;20.60;74.20
30244;DHT22;64022;53.652;9.792;2022-11-15T05:58:53;20.60;74.20
30244;DHT22;64022;53.652;9.792;2022-11-15T06:01:19;20.60;74.20
30244;DHT22;64022;53.652;9.792;2022-11-15T06:03:45;20.60;74.20
30244;DHT22;64022;53.652;9.792;2022-11-15T06:06:10;20.60;74.20
30244;DHT22;64022;53.652;9.792;2022-11-15T06:08:36;20.60;74.20
30244;DHT22;64022;53.652;9.792;2022-11-15T06:11:05;20.60;74.20
30244;DHT22;64022;53.652;9.792;2022-11-15T06:13:32;20.60;74.20
30244;DHT22;64022;53.652;9.792;2022-11-15T06:15:57;20.60;74.20
30244;DHT22;64022;53.652;9.792;2022-11-15T06:18:23;20.60;74.20
30244;DHT22;64022;53.652;9.792;2022-11-15T06:20:49;20.50;74.10
30244;DHT22;64022;53.652;9.792;2022-11-15T06:23:14;20.60;74.20
30244;DHT22;64022;53.652;9.792;2022-11-15T06:25:40;20.60;74.20
30244;DHT22;64022;53.652;9.792;2022-11-15T06:28:06;20.60;74.20
30244;DHT22;64022;53.652;9.792;2022-11-15T06:30:31;20.60;74.20
30244;DHT22;64022;53.652;9.792;2022-11-15T06:33:01;20.60;74.20
30244;DHT22;64022;53.652;9.792;2022-11-15T06:35:28;20.60;74.20
30244;DHT22;64022;53.652;9.792;2022-11-15T06:37:54;20.60;74.20
30244;DHT22;64022;53.652;9.792;2022-11-15T06:40:19;20.50;74.10
30244;DHT22;64022;53.652;9.792;2022-11-15T06:42:45;20.60;74.10
30244;DHT22;64022;53.652;9.792;2022-11-15T06:45:10;20.60;74.20
30244;DHT22;64022;53.652;9.792;2022-11-15T06:47:44;20.60;74.10
30244;DHT22;64022;53.652;9.792;2022-11-15T06:50:10;20.60;74.10
30244;DHT22;64022;53.652;9.792;2022-11-15T06:52:36;20.60;74.10
30244;DHT22;64022;53.652;9.792;2022-11-15T06:55:01;20.50;74.10
30244;DHT22;64022;53.652;9.792;2022-11-15T06:57:27;20.60;74.10
30244;DHT22;64022;53.652;9.792;2022-11-15T06:59:52;20.50;74.10
30244;DHT22;64022;53.652;9.792;2022-11-15T07:02:18;20.50;74.10
30244;DHT22;64022;53.652;9.792;2022-11-15T07:04:43;20.50;74.10
30244;DHT22;64022;53.652;9.792;2022-11-15T07:07:09;20.60;74.10
30244;DHT22;64022;53.652;9.792;2022-11-15T07:09:35;20.60;74.10
30244;DHT22;64022;53.652;9.792;2022-11-15T07:12:00;20.50;74.10
30244;DHT22;64022;53.652;9.792;2022-11-15T07:14:26;20.50;74.10
30244;DHT22;64022;53.652;9.792;2022-11-15T07:16:51;20.50;74.10
30244;DHT22;64022;53.652;9.792;2022-11-15T07:19:17;20.50;74.00
30244;DHT22;64022;53.652;9.792;2022-11-15T07:21:42;20.50;74.00
30244;DHT22;64022;53.652;9.792;2022-11-15T07:24:08;20.50;74.00
30244;DHT22;64022;53.652;9.792;2022-11-15T07:26:34;20.50;74.00
30244;DHT22;64022;53.652;9.792;2022-11-15T07:28:59;20.50;74.00
30244;DHT22;64022;53.652;9.792;2022-11-15T07:31:25;20.50;74.00
30244;DHT22;64022;53.652;9.792;2022-11-15T07:33:50;20.50;74.00
30244;DHT22;64022;53.652;9.792;2022-11-15T07:36:16;20.50;74.00
30244;DHT22;64022;53.652;9.792;2022-11-15T07:38:41;20.50;74.00
30244;DHT22;64022;53.652;9.792;2022-11-15T07:41:07;20.50;74.00
30244;DHT22;64022;53.652;9.792;2022-11-15T07:43:32;20.50;74.00
30244;DHT22;64022;53.652;9.792;2022-11-15T07:46:03;20.50;74.00
30244;DHT22;64022;53.652;9.792;2022-11-15T07:48:29;20.50;74.00
30244;DHT22;64022;53.652;9.792;2022-11-15T07:50:55;20.50;74.00
30244;DHT22;64022;53.652;9.792;2022-11-15T07:53:20;20.50;74.50
30244;DHT22;64022;53.652;9.792;2022-11-15T07:55:46;20.50;74.00
30244;DHT22;64022;53.652;9.792;2022-11-15T07:58:12;20.50;74.00
30244;DHT22;64022;53.652;9.792;2022-11-15T08:00:38;20.50;74.10
30244;DHT22;64022;53.652;9.792;2022-11-15T08:03:06;20.50;74.10
30244;DHT22;64022;53.652;9.792;2022-11-15T08:05:32;20.50;74.10
30244;DHT22;64022;53.652;9.792;2022-11-15T08:07:58;20.60;74.20
30244;DHT22;64022;53.652;9.792;2022-11-15T08:10:25;20.60;74.20
30244;DHT22;64022;53.652;9.792;2022-11-15T08:13:11;20.60;74.30
30244;DHT22;64022;53.652;9.792;2022-11-15T08:15:37;20.60;74.10
30244;DHT22;64022;53.652;9.792;2022-11-15T08:18:11;20.60;74.30
30244;DHT22;64022;53.652;9.792;2022-11-15T08:20:37;20.60;74.30
30244;DHT22;64022;53.652;9.792;2022-11-15T08:23:03;20.60;74.30
30244;DHT22;64022;53.652;9.792;2022-11-15T08:25:31;20.50;74.20
30244;DHT22;64022;53.652;9.792;2022-11-15T08:27:59;20.60;74.30
30244;DHT22;64022;53.652;9.792;2022-11-15T08:30:26;20.60;74.80
30244;DHT22;64022;53.652;9.792;2022-11-15T08:32:53;20.60;74.30
30244;DHT22;64022;53.652;9.792;2022-11-15T08:35:19;20.60;74.30
30244;DHT22;64022;53.652;9.792;2022-11-15T08:37:46;20.60;74.30
30244;DHT22;64022;53.652;9.792;2022-11-15T08:40:11;20.60;74.40
30244;DHT22;64022;53.652;9.792;2022-11-15T08:42:38;20.60;74.40
30244;DHT22;64022;53.652;9.792;2022-11-15T08:45:04;20.60;74.10
30244;DHT22;64022;53.652;9.792;2022-11-15T08:47:30;20.60;74.50
30244;DHT22;64022;53.652;9.792;2022-11-15T08:49:55;20.60;74.50
30244;DHT22;64022;53.652;9.792;2022-11-15T08:52:21;20.60;74.50
30244;DHT22;64022;53.652;9.792;2022-11-15T08:54:47;20.60;74.50
30244;DHT22;64022;53.652;9.792;2022-11-15T08:57:12;20.60;74.50
30244;DHT22;64022;53.652;9.792;2022-11-15T08:59:38;20.60;74.50
30244;DHT22;64022;53.652;9.792;2022-11-15T09:02:04;20.60;74.50
30244;DHT22;64022;53.652;9.792;2022-11-15T09:04:30;20.60;74.50
30244;DHT22;64022;53.652;9.792;2022-11-15T09:06:56;20.60;74.50
30244;DHT22;64022;53.652;9.792;2022-11-15T09:09:21;20.60;74.60
30244;DHT22;64022;53.652;9.792;2022-11-15T09:11:47;20.60;74.60
30244;DHT22;64022;53.652;9.792;2022-11-15T09:14:13;20.60;74.50
30244;DHT22;64022;53.652;9.792;2022-11-15T09:16:39;20.60;74.60
30244;DHT22;64022;53.652;9.792;2022-11-15T09:19:04;20.60;74.60
30244;DHT22;64022;53.652;9.792;2022-11-15T09:21:31;20.60;74.60
30244;DHT22;64022;53.652;9.792;2022-11-15T09:23:56;20.60;74.60
30244;DHT22;64022;53.652;9.792;2022-11-15T09:26:22;20.60;74.70
30244;DHT22;64022;53.652;9.792;2022-11-15T09:28:48;20.60;74.60
30244;DHT22;64022;53.652;9.792;2022-11-15T09:31:13;20.60;74.60
30244;DHT22;64022;53.652;9.792;2022-11-15T09:33:39;20.60;74.70
30244;DHT22;64022;53.652;9.792;2022-11-15T09:36:07;20.60;74.70
30244;DHT22;64022;53.652;9.792;2022-11-15T09:38:33;20.60;74.70
30244;DHT22;64022;53.652;9.792;2022-11-15T09:49:00;20.60;74.50
30244;DHT22;64022;53.652;9.792;2022-11-15T09:51:30;20.60;74.80
30244;DHT22;64022;53.652;9.792;2022-11-15T09:54:01;20.60;74.90
30244;DHT22;64022;53.652;9.792;2022-11-15T09:56:30;20.60;74.90
30244;DHT22;64022;53.652;9.792;2022-11-15T09:59:28;20.60;74.90
30244;DHT22;64022;53.652;9.792;2022-11-15T10:04:54;20.60;74.80
30244;DHT22;64022;53.652;9.792;2022-11-15T10:07:37;20.60;74.90
30244;DHT22;64022;53.652;9.792;2022-11-15T10:11:03;20.60;74.90
30244;DHT22;64022;53.652;9.792;2022-11-15T10:13:16;20.60;74.80
30244;DHT22;64022;53.652;9.792;2022-11-15T10:15:46;20.60;74.90
30244;DHT22;64022;53.652;9.792;2022-11-15T10:21:17;20.70;75.00
30244;DHT22;64022;53.652;9.792;2022-11-15T10:23:44;20.60;74.90
30244;DHT22;64022;53.652;9.792;2022-11-15T10:26:15;20.70;75.00
30244;DHT22;64022;53.652;9.792;2022-11-15T10:28:42;20.60;75.00
30244;DHT22;64022;53.652;9.792;2022-11-15T10:31:21;20.70;75.00
30244;DHT22;64022;53.652;9.792;2022-11-15T10:33:48;20.60;74.70
30244;DHT22;64022;53.652;9.792;2022-11-15T10:36:16;20.60;75.00
30244;DHT22;64022;53.652;9.792;2022-11-15T10:38:53;20.60;74.80
30244;DHT22;64022;53.652;9.792;2022-11-15T10:41:22;20.60;75.10
30244;DHT22;64022;53.652;9.792;2022-11-15T10:46:33;20.60;75.00
30244;DHT22;64022;53.652;9.792;2022-11-15T10:49:19;20.60;75.10
30244;DHT22;64022;53.652;9.792;2022-11-15T10:52:04;20.70;75.50
30244;DHT22;64022;53.652;9.792;2022-11-15T10:54:43;20.60;75.00
30244;DHT22;64022;53.652;9.792;2022-11-15T10:57:15;20.60;75.10
30244;DHT22;64022;53.652;9.792;2022-11-15T11:00:03;20.70;75.10
30244;DHT22;64022;53.652;9.792;2022-11-15T11:05:02;20.60;75.10
30244;DHT22;64022;53.652;9.792;2022-11-15T11:07:31;20.70;75.10
30244;DHT22;64022;53.652;9.792;2022-11-15T11:10:17;20.70;75.10
30244;DHT22;64022;53.652;9.792;2022-11-15T11:12:43;20.70;75.50
30244;DHT22;64022;53.652;9.792;2022-11-15T11:15:11;20.70;75.10
30244;DHT22;64022;53.652;9.792;2022-11-15T11:17:51;20.70;75.10
30244;DHT22;64022;53.652;9.792;2022-11-15T11:26:13;20.70;75.10
30244;DHT22;64022;53.652;9.792;2022-11-15T11:31:45;20.70;75.20
30244;DHT22;64022;53.652;9.792;2022-11-15T11:36:52;20.70;75.00
30244;DHT22;64022;53.652;9.792;2022-11-15T11:39:24;20.70;75.40
30244;DHT22;64022;53.652;9.792;2022-11-15T11:41:56;20.60;75.30
30244;DHT22;64022;53.652;9.792;2022-11-15T11:44:35;20.70;75.40
30244;DHT22;64022;53.652;9.792;2022-11-15T11:47:12;20.70;75.30
30244;DHT22;64022;53.652;9.792;2022-11-15T11:49:57;20.70;75.30
30244;DHT22;64022;53.652;9.792;2022-11-15T11:52:31;20.70;75.30
30244;DHT22;64022;53.652;9.792;2022-11-15T11:55:20;20.70;75.40
30244;DHT22;64022;53.652;9.792;2022-11-15T11:58:08;20.70;75.40
30244;DHT22;64022;53.652;9.792;2022-11-15T12:00:46;20.70;75.30
30244;DHT22;64022;53.652;9.792;2022-11-15T12:03:32;20.70;75.50
30244;DHT22;64022;53.652;9.792;2022-11-15T12:06:04;20.70;75.40
30244;DHT22;64022;53.652;9.792;2022-11-15T12:14:02;20.70;75.50
30244;DHT22;64022;53.652;9.792;2022-11-15T12:16:29;20.70;75.50
30244;DHT22;64022;53.652;9.792;2022-11-15T12:19:00;20.70;75.60
30244;DHT22;64022;53.652;9.792;2022-11-15T12:21:31;20.70;75.50
30244;DHT22;64022;53.652;9.792;2022-11-15T12:24:04;20.70;75.50
30244;DHT22;64022;53.652;9.792;2022-11-15T12:26:37;20.80;75.60
30244;DHT22;64022;53.652;9.792;2022-11-15T12:29:15;20.70;75.60
30244;DHT22;64022;53.652;9.792;2022-11-15T12:31:44;20.70;75.60
30244;DHT22;64022;53.652;9.792;2022-11-15T12:34:31;20.80;75.60
30244;DHT22;64022;53.652;9.792;2022-11-15T12:37:00;20.80;75.50
30244;DHT22;64022;53.652;9.792;2022-11-15T12:42:39;20.80;75.40
30244;DHT22;64022;53.652;9.792;2022-11-15T12:45:26;20.70;75.60
30244;DHT22;64022;53.652;9.792;2022-11-15T12:47:51;20.80;75.60
30244;DHT22;64022;53.652;9.792;2022-11-15T12:50:54;20.80;75.70
30244;DHT22;64022;53.652;9.792;2022-11-15T12:58:46;20.80;75.60
30244;DHT22;64022;53.652;9.792;2022-11-15T13:06:47;20.80;75.70
30244;DHT22;64022;53.652;9.792;2022-11-15T13:11:58;20.80;75.80
30244;DHT22;64022;53.652;9.792;2022-11-15T13:14:46;20.80;75.80
30244;DHT22;64022;53.652;9.792;2022-11-15T13:19:59;20.80;75.80
30244;DHT22;64022;53.652;9.792;2022-11-15T13:22:27;20.80;75.80
30244;DHT22;64022;53.652;9.792;2022-11-15T13:27:41;20.80;75.90
30244;DHT22;64022;53.652;9.792;2022-11-15T13:30:24;20.80;75.90
30244;DHT22;64022;53.652;9.792;2022-11-15T13:32:51;20.80;75.90
30244;DHT22;64022;53.652;9.792;2022-11-15T13:35:26;20.80;75.90
30244;DHT22;64022;53.652;9.792;2022-11-15T13:37:53;20.80;75.90
30244;DHT22;64022;53.652;9.792;2022-11-15T13:40:28;20.80;75.90
30244;DHT22;64022;53.652;9.792;2022-11-15T13:42:56;20.90;75.90
30244;DHT22;64022;53.652;9.792;2022-11-15T13:45:22;20.90;75.90
30244;DHT22;64022;53.652;9.792;2022-11-15T13:47:56;20.90;75.90
30244;DHT22;64022;53.652;9.792;2022-11-15T13:50:26;20.80;75.80
30244;DHT22;64022;53.652;9.792;2022-11-15T13:52:55;20.80;75.80
30244;DHT22;64022;53.652;9.792;2022-11-15T13:55:22;20.90;75.90
30244;DHT22;64022;53.652;9.792;2022-11-15T13:57:50;20.90;75.90
30244;DHT22;64022;53.652;9.792;2022-11-15T14:03:18;20.80;75.90
30244;DHT22;64022;53.652;9.792;2022-11-15T14:06:01;20.80;75.80
30244;DHT22;64022;53.652;9.792;2022-11-15T14:08:27;20.80;75.90
30244;DHT22;64022;53.652;9.792;2022-11-15T14:11:13;20.80;75.80
30244;DHT22;64022;53.652;9.792;2022-11-15T14:13:40;20.80;75.80
30244;DHT22;64022;53.652;9.792;2022-11-15T14:16:17;20.80;75.80
30244;DHT22;64022;53.652;9.792;2022-11-15T14:18:47;20.80;75.80
30244;DHT22;64022;53.652;9.792;2022-11-15T14:21:13;20.80;75.80
30244;DHT22;64022;53.652;9.792;2022-11-15T14:23:39;20.80;75.80
30244;DHT22;64022;53.652;9.792;2022-11-15T14:26:05;20.80;75.80
30244;DHT22;64022;53.652;9.792;2022-11-15T14:28:32;20.80;75.80
30244;DHT22;64022;53.652;9.792;2022-11-15T14:31:01;20.80;75.80
30244;DHT22;64022;53.652;9.792;2022-11-15T14:33:34;20.80;75.80
30244;DHT22;64022;53.652;9.792;2022-11-15T14:36:12;20.90;75.90
30244;DHT22;64022;53.652;9.792;2022-11-15T14:38:38;20.80;75.80
30244;DHT22;64022;53.652;9.792;2022-11-15T14:41:03;20.90;75.90
30244;DHT22;64022;53.652;9.792;2022-11-15T14:43:29;20.90;75.90
30244;DHT22;64022;53.652;9.792;2022-11-15T14:45:55;20.90;76.00
30244;DHT22;64022;53.652;9.792;2022-11-15T14:48:20;20.90;76.00
30244;DHT22;64022;53.652;9.792;2022-11-15T14:50:47;20.90;76.00
30244;DHT22;64022;53.652;9.792;2022-11-15T14:53:15;20.90;76.00
30244;DHT22;64022;53.652;9.792;2022-11-15T14:55:41;20.90;76.00
30244;DHT22;64022;53.652;9.792;2022-11-15T14:58:07;20.90;76.00
30244;DHT22;64022;53.652;9.792;2022-11-15T15:00:37;20.90;76.00
30244;DHT22;64022;53.652;9.792;2022-11-15T15:03:04;20.90;76.00
30244;DHT22;64022;53.652;9.792;2022-11-15T15:05:35;20.90;76.00
30244;DHT22;64022;53.652;9.792;2022-11-15T15:08:01;20.90;76.10
30244;DHT22;64022;53.652;9.792;2022-11-15T15:10:31;20.90;76.10
30244;DHT22;64022;53.652;9.792;2022-11-15T15:12:57;20.90;76.10
30244;DHT22;64022;53.652;9.792;2022-11-15T15:15:36;20.90;76.10
30244;DHT22;64022;53.652;9.792;2022-11-15T15:18:05;20.90;76.00
30244;DHT22;64022;53.652;9.792;2022-11-15T15:20:34;20.90;76.10
30244;DHT22;64022;53.652;9.792;2022-11-15T15:23:00;20.90;76.10
30244;DHT22;64022;53.652;9.792;2022-11-15T15:25:32;20.90;76.10
30244;DHT22;64022;53.652;9.792;2022-11-15T15:27:58;20.90;76.10
30244;DHT22;64022;53.652;9.792;2022-11-15T15:30:25;20.90;76.10
30244;DHT22;64022;53.652;9.792;2022-11-15T15:32:51;20.90;76.10
30244;DHT22;64022;53.652;9.792;2022-11-15T15:35:17;20.90;76.20
30244;DHT22;64022;53.652;9.792;2022-11-15T15:37:43;20.90;76.20
30244;DHT22;64022;53.652;9.792;2022-11-15T15:40:20;20.90;75.90
30244;DHT22;64022;53.652;9.792;2022-11-15T15:42:47;20.80;76.20
30244;DHT22;64022;53.652;9.792;2022-11-15T15:45:13;20.90;76.30
30244;DHT22;64022;53.652;9.792;2022-11-15T15:47:39;20.90;76.30
30244;DHT22;64022;53.652;9.792;2022-11-15T15:50:18;20.90;76.40
30244;DHT22;64022;53.652;9.792;2022-11-15T15:52:45;20.90;76.30
30244;DHT22;64022;53.652;9.792;2022-11-15T15:55:10;20.90;76.40
30244;DHT22;64022;53.652;9.792;2022-11-15T15:57:36;20.90;76.40
30244;DHT22;64022;53.652;9.792;2022-11-15T16:00:03;20.90;76.40
30244;DHT22;64022;53.652;9.792;2022-11-15T16:02:29;20.90;76.90
30244;DHT22;64022;53.652;9.792;2022-11-15T16:04:54;20.90;76.40
30244;DHT22;64022;53.652;9.792;2022-11-15T16:07:22;20.90;76.40
30244;DHT22;64022;53.652;9.792;2022-11-15T16:09:49;20.90;76.40
30244;DHT22;64022;53.652;9.792;2022-11-15T16:12:32;20.90;76.40
30244;DHT22;64022;53.652;9.792;2022-11-15T16:14:58;20.90;76.40
30244;DHT22;64022;53.652;9.792;2022-11-15T16:17:26;20.90;76.40
30244;DHT22;64022;53.652;9.792;2022-11-15T16:19:53;20.90;76.40
30244;DHT22;64022;53.652;9.792;2022-11-15T16:22:19;20.90;76.40
30244;DHT22;64022;53.652;9.792;2022-11-15T16:24:45;20.90;76.40
30244;DHT22;64022;53.652;9.792;2022-11-15T16:27:16;20.90;76.40
30244;DHT22;64022;53.652;9.792;2022-11-15T16:29:42;20.90;76.90
30244;DHT22;64022;53.652;9.792;2022-11-15T16:32:08;20.90;76.40
30244;DHT22;64022;53.652;9.792;2022-11-15T16:34:33;20.90;76.40
30244;DHT22;64022;53.652;9.792;2022-11-15T16:36:59;20.90;76.40
30244;DHT22;64022;53.652;9.792;2022-11-15T16:39:25;20.90;76.40
30244;DHT22;64022;53.652;9.792;2022-11-15T16:41:53;20.90;76.40
30244;DHT22;64022;53.652;9.792;2022-11-15T16:44:18;20.90;76.40
30244;DHT22;64022;53.652;9.792;2022-11-15T16:46:44;20.90;76.40
30244;DHT22;64022;53.652;9.792;2022-11-15T16:49:16;20.90;76.40
30244;DHT22;64022;53.652;9.792;2022-11-15T16:51:41;20.90;76.40
30244;DHT22;64022;53.652;9.792;2022-11-15T16:54:09;20.90;76.40
30244;DHT22;64022;53.652;9.792;2022-11-15T16:56:34;20.90;76.40
30244;DHT22;64022;53.652;9.792;2022-11-15T16:59:00;20.90;76.30
30244;DHT22;64022;53.652;9.792;2022-11-15T17:01:36;20.90;76.30
30244;DHT22;64022;53.652;9.792;2022-11-15T17:04:11;20.90;76.30
30244;DHT22;64022;53.652;9.792;2022-11-15T17:06:38;20.90;76.30
30244;DHT22;64022;53.652;9.792;2022-11-15T17:09:05;20.90;76.30